createdAt,value
2018-11-06T00:02:35.016Z,49.75
2018-11-06T00:05:12.966Z,54.25
2018-11-06T00:07:48.223Z,51.08
2018-11-06T00:10:23.701Z,49.77
2018-11-06T00:12:59.355Z,50.35
2018-11-06T00:15:34.695Z,49.38
2018-11-06T00:18:10.192Z,47.25
2018-11-06T00:20:45.534Z,51.42
2018-11-06T00:23:20.772Z,50.25
2018-11-06T00:25:56.171Z,52.55
2018-11-06T00:28:31.474Z,49.98
2018-11-06T00:31:17.723Z,51.65
2018-11-06T00:34:03.362Z,43.10
2018-11-06T00:36:38.801Z,46.08
2018-11-06T00:39:14.251Z,46.60
2018-11-06T00:41:50.006Z,44.90
2018-11-06T00:44:25.541Z,43.87
2018-11-06T00:47:01.071Z,44.95
2018-11-06T00:49:36.391Z,40.25
2018-11-06T00:52:11.705Z,44.55
2018-11-06T00:54:47.101Z,41.98
2018-11-06T00:57:22.584Z,39.33
2018-11-06T00:59:58.526Z,43.95
2018-11-06T01:02:33.884Z,42.73
2018-11-06T01:05:10.342Z,44.88
2018-11-06T01:07:47.748Z,45.85
2018-11-06T01:10:23.041Z,43.83
2018-11-06T01:12:58.406Z,43.85
2018-11-06T01:15:33.582Z,43.70
2018-11-06T01:18:09.070Z,41.02
2018-11-06T01:20:44.422Z,43.58
2018-11-06T01:23:19.973Z,42.33
2018-11-06T01:25:55.703Z,46.77
2018-11-06T01:28:31.261Z,43.28
2018-11-06T01:31:06.581Z,45.05
2018-11-06T01:33:42.087Z,40.70
2018-11-06T01:36:17.563Z,38.33
2018-11-06T01:38:52.920Z,38.48
2018-11-06T01:41:28.259Z,42.45
2018-11-06T01:44:03.821Z,44.00
2018-11-06T01:46:39.444Z,44.58
2018-11-06T01:49:15.037Z,43.25
2018-11-06T01:51:50.653Z,40.50
2018-11-06T01:54:26.027Z,43.00
2018-11-06T01:57:01.343Z,43.02
2018-11-06T01:59:36.601Z,46.50
2018-11-06T02:02:11.912Z,42.83
2018-11-06T02:04:47.274Z,46.10
2018-11-06T02:07:22.590Z,42.90
2018-11-06T02:09:57.953Z,44.77
2018-11-06T02:12:33.335Z,43.80
2018-11-06T02:15:09.652Z,41.90
2018-11-06T02:17:45.531Z,42.60
2018-11-06T02:20:20.980Z,41.95
2018-11-06T02:22:56.584Z,40.95
2018-11-06T02:25:32.164Z,39.45
2018-11-06T02:28:07.764Z,38.55
2018-11-06T02:30:43.329Z,40.03
2018-11-06T02:33:18.976Z,39.92
2018-11-06T02:35:54.369Z,42.23
2018-11-06T02:38:29.748Z,40.88
2018-11-06T02:41:05.413Z,37.38
2018-11-06T02:43:40.520Z,40.17
2018-11-06T02:46:15.838Z,38.90
2018-11-06T02:48:51.154Z,43.48
2018-11-06T02:51:26.463Z,40.05
2018-11-06T02:54:01.588Z,39.08
2018-11-06T02:56:36.944Z,40.90
2018-11-06T02:59:12.372Z,43.33
2018-11-06T03:01:47.697Z,41.92
2018-11-06T03:04:23.192Z,39.60
2018-11-06T03:06:58.635Z,44.95
2018-11-06T03:09:33.946Z,42.58
2018-11-06T03:12:09.542Z,42.93
2018-11-06T03:14:44.965Z,41.42
2018-11-06T03:17:20.524Z,44.35
2018-11-06T03:19:56.061Z,44.10
2018-11-06T03:22:31.505Z,46.30
2018-11-06T03:25:07.331Z,39.67
2018-11-06T03:27:43.061Z,42.08
2018-11-06T03:30:18.405Z,38.67
2018-11-06T03:32:53.963Z,42.85
2018-11-06T03:35:29.272Z,43.87
2018-11-06T03:38:04.725Z,43.73
2018-11-06T03:40:40.106Z,44.27
2018-11-06T03:43:15.594Z,44.10
2018-11-06T03:45:51.128Z,42.45
2018-11-06T03:48:26.632Z,40.55
2018-11-06T03:51:01.984Z,39.60
2018-11-06T03:53:37.399Z,48.42
2018-11-06T03:56:12.822Z,41.98
2018-11-06T03:58:48.221Z,40.92
2018-11-06T04:01:23.868Z,43.38
2018-11-06T04:03:59.521Z,45.98
2018-11-06T04:06:35.165Z,46.20
2018-11-06T04:09:11.919Z,52.62
2018-11-06T04:11:47.243Z,48.15
2018-11-06T04:14:22.625Z,52.93
2018-11-06T04:16:58.081Z,51.63
2018-11-06T04:19:33.514Z,57.00
2018-11-06T04:22:09.054Z,50.10
2018-11-06T04:24:44.699Z,49.48
2018-11-06T04:27:20.052Z,48.80
2018-11-06T04:29:55.595Z,49.95
2018-11-06T04:32:31.142Z,50.65
2018-11-06T04:35:06.889Z,52.03
2018-11-06T04:37:42.413Z,52.70
2018-11-06T04:40:17.833Z,53.20
2018-11-06T04:42:53.222Z,49.23
2018-11-06T04:45:28.866Z,51.63
2018-11-06T04:48:04.415Z,54.73
2018-11-06T04:50:39.933Z,55.83
2018-11-06T04:53:15.806Z,51.42
2018-11-06T04:55:51.165Z,57.83
2018-11-06T04:58:26.647Z,54.20
2018-11-06T05:01:02.471Z,50.65
2018-11-06T05:03:41.863Z,50.25
2018-11-06T05:06:18.503Z,51.60
2018-11-06T05:08:53.997Z,53.15
2018-11-06T05:11:29.525Z,55.92
2018-11-06T05:14:05.866Z,56.20
2018-11-06T05:16:41.242Z,52.70
2018-11-06T05:19:16.624Z,54.88
2018-11-06T05:21:51.925Z,58.40
2018-11-06T05:24:27.353Z,58.25
2018-11-06T05:27:03.394Z,50.50
2018-11-06T05:29:39.085Z,51.25
2018-11-06T05:32:14.535Z,50.55
2018-11-06T05:34:50.183Z,47.78
2018-11-06T05:37:25.536Z,49.23
2018-11-06T05:40:12.109Z,49.70
2018-11-06T05:42:47.627Z,51.92
2018-11-06T05:45:23.022Z,45.28
2018-11-06T05:47:58.641Z,46.77
2018-11-06T05:50:34.172Z,41.45
2018-11-06T05:53:09.617Z,41.48
2018-11-06T05:55:44.996Z,40.63
2018-11-06T05:58:20.502Z,39.25
2018-11-06T06:00:55.924Z,36.70
2018-11-06T06:03:31.434Z,39.27
2018-11-06T06:06:06.889Z,39.90
2018-11-06T06:08:42.535Z,38.15
2018-11-06T06:11:18.236Z,39.95
2018-11-06T06:13:53.842Z,37.28
2018-11-06T06:16:29.374Z,35.85
2018-11-06T06:19:05.445Z,36.23
2018-11-06T06:21:40.924Z,38.45
2018-11-06T06:24:16.324Z,36.23
2018-11-06T06:26:51.738Z,37.45
2018-11-06T06:29:27.224Z,36.85
2018-11-06T06:32:02.501Z,38.67
2018-11-06T06:34:37.947Z,37.13
2018-11-06T06:37:13.435Z,36.20
2018-11-06T06:39:49.056Z,36.95
2018-11-06T06:42:24.437Z,37.63
2018-11-06T06:45:00.017Z,33.55
2018-11-06T06:47:35.508Z,36.13
2018-11-06T06:50:16.769Z,35.05
2018-11-06T06:52:52.206Z,35.03
2018-11-06T06:55:27.482Z,31.75
2018-11-06T06:58:03.121Z,38.45
2018-11-06T07:00:38.542Z,34.75
2018-11-06T07:03:14.011Z,32.30
2018-11-06T07:05:49.571Z,31.55
2018-11-06T07:08:25.001Z,32.45
2018-11-06T07:11:00.451Z,27.87
2018-11-06T07:13:35.764Z,29.32
2018-11-06T07:16:11.134Z,29.45
2018-11-06T07:18:46.790Z,30.85
2018-11-06T07:21:22.014Z,29.35
2018-11-06T07:23:57.761Z,30.70
2018-11-06T07:26:33.592Z,30.48
2018-11-06T07:29:09.020Z,31.30
2018-11-06T07:31:44.585Z,29.00
2018-11-06T07:34:19.892Z,27.27
2018-11-06T07:36:55.308Z,30.50
2018-11-06T07:39:30.709Z,33.88
2018-11-06T07:42:06.573Z,41.50
2018-11-06T07:44:41.925Z,47.78
2018-11-06T07:47:17.258Z,35.75
2018-11-06T07:49:52.524Z,38.23
2018-11-06T07:52:27.854Z,28.85
2018-11-06T07:55:03.282Z,25.70
2018-11-06T07:57:38.754Z,26.40
2018-11-06T08:00:18.473Z,33.15
2018-11-06T08:02:53.833Z,27.80
2018-11-06T08:05:29.430Z,36.88
2018-11-06T08:08:04.923Z,29.50
2018-11-06T08:10:40.314Z,45.30
2018-11-06T08:13:15.614Z,35.88
2018-11-06T08:15:51.055Z,39.35
2018-11-06T08:18:26.584Z,40.08
2018-11-06T08:21:02.232Z,26.05
2018-11-06T08:23:37.754Z,28.50
2018-11-06T08:26:13.504Z,29.80
2018-11-06T08:28:48.951Z,27.87
2018-11-06T08:31:24.710Z,27.65
2018-11-06T08:33:59.833Z,24.35
2018-11-06T08:36:35.250Z,24.55
2018-11-06T08:39:11.491Z,22.85
2018-11-06T08:41:46.952Z,25.77
2018-11-06T08:44:22.352Z,24.05
2018-11-06T08:46:57.991Z,22.82
2018-11-06T08:49:33.543Z,23.35
2018-11-06T08:52:09.192Z,22.98
2018-11-06T08:54:44.836Z,22.07
2018-11-06T08:57:20.179Z,24.50
2018-11-06T08:59:55.594Z,22.07
2018-11-06T09:02:31.084Z,23.18
2018-11-06T09:05:07.760Z,23.98
2018-11-06T09:07:43.438Z,24.55
2018-11-06T09:10:19.197Z,24.20
2018-11-06T09:12:55.281Z,24.80
2018-11-06T09:15:30.509Z,23.00
2018-11-06T09:18:06.235Z,25.00
2018-11-06T09:20:41.634Z,24.43
2018-11-06T09:23:17.291Z,22.52
2018-11-06T09:25:52.645Z,23.83
2018-11-06T09:28:28.003Z,23.00
2018-11-06T09:31:03.367Z,23.52
2018-11-06T09:33:38.823Z,23.00
2018-11-06T09:36:14.273Z,21.73
2018-11-06T09:38:49.591Z,23.40
2018-11-06T09:41:25.457Z,22.02
2018-11-06T09:44:00.751Z,23.57
2018-11-06T09:46:36.570Z,22.17
2018-11-06T09:49:12.208Z,21.57
2018-11-06T09:51:47.685Z,22.73
2018-11-06T09:54:23.293Z,21.57
2018-11-06T09:56:58.790Z,22.67
2018-11-06T09:59:34.165Z,21.60
2018-11-06T10:02:09.490Z,21.55
2018-11-06T10:04:44.924Z,21.73
2018-11-06T10:07:20.675Z,23.32
2018-11-06T10:09:55.950Z,24.30
2018-11-06T10:12:31.235Z,22.98
2018-11-06T10:15:08.036Z,24.00
2018-11-06T10:17:45.031Z,24.35
2018-11-06T10:20:21.233Z,20.90
2018-11-06T10:22:56.677Z,23.10
2018-11-06T10:25:32.075Z,23.30
2018-11-06T10:28:07.526Z,24.20
2018-11-06T10:30:42.745Z,24.87
2018-11-06T10:33:18.241Z,23.85
2018-11-06T10:35:53.519Z,25.17
2018-11-06T10:38:29.204Z,24.60
2018-11-06T10:41:04.719Z,22.30
2018-11-06T10:43:40.289Z,24.05
2018-11-06T10:46:15.792Z,25.20
2018-11-06T10:48:51.361Z,23.05
2018-11-06T10:51:26.861Z,22.65
2018-11-06T10:54:02.355Z,23.73
2018-11-06T10:56:38.079Z,24.47
2018-11-06T10:59:13.652Z,25.27
2018-11-06T11:01:54.091Z,24.65
2018-11-06T11:04:29.976Z,22.65
2018-11-06T11:07:05.192Z,23.12
2018-11-06T11:09:41.057Z,24.98
2018-11-06T11:12:16.689Z,26.27
2018-11-06T11:14:53.275Z,24.80
2018-11-06T11:17:28.638Z,25.60
2018-11-06T11:20:04.460Z,25.45
2018-11-06T11:22:40.134Z,26.45
2018-11-06T11:25:16.473Z,25.62
2018-11-06T11:27:51.716Z,26.30
2018-11-06T11:30:27.971Z,28.95
2018-11-06T11:33:03.984Z,29.10
2018-11-06T11:35:39.974Z,28.80
2018-11-06T11:38:16.004Z,29.00
2018-11-06T11:40:51.610Z,24.75
2018-11-06T11:43:27.271Z,25.72
2018-11-06T11:46:02.960Z,26.12
2018-11-06T11:48:38.660Z,26.40
2018-11-06T11:51:14.114Z,26.55
2018-11-06T11:53:49.425Z,28.25
2018-11-06T11:56:24.740Z,25.27
2018-11-06T11:59:00.330Z,27.05
2018-11-06T12:01:35.896Z,27.42
2018-11-06T12:04:11.243Z,29.72
2018-11-06T12:06:46.666Z,28.85
2018-11-06T12:09:22.122Z,27.93
2018-11-06T12:11:57.381Z,27.45
2018-11-06T12:14:32.928Z,25.43
2018-11-06T12:17:08.473Z,28.35
2018-11-06T12:19:44.067Z,29.05
2018-11-06T12:22:19.674Z,30.15
2018-11-06T12:24:54.969Z,28.50
2018-11-06T12:27:30.341Z,26.68
2018-11-06T12:30:07.322Z,29.95
2018-11-06T12:32:43.062Z,29.18
2018-11-06T12:35:18.653Z,29.40
2018-11-06T12:37:54.080Z,29.40
2018-11-06T12:40:29.430Z,30.02
2018-11-06T12:43:04.831Z,31.77
2018-11-06T12:45:40.506Z,30.08
2018-11-06T12:48:15.951Z,30.70
2018-11-06T12:50:51.598Z,29.18
2018-11-06T12:53:26.871Z,30.48
2018-11-06T12:56:02.385Z,32.55
2018-11-06T12:58:37.742Z,32.70
2018-11-06T13:01:13.192Z,29.70
2018-11-06T13:03:48.703Z,29.98
2018-11-06T13:06:24.093Z,29.60
2018-11-06T13:08:59.372Z,32.08
2018-11-06T13:11:34.852Z,30.27
2018-11-06T13:14:10.615Z,31.87
2018-11-06T13:16:46.278Z,30.68
2018-11-06T13:19:21.816Z,31.80
2018-11-06T13:21:57.302Z,30.80
2018-11-06T13:24:32.771Z,30.92
2018-11-06T13:27:08.151Z,31.82
2018-11-06T13:29:43.597Z,31.35
2018-11-06T13:32:19.168Z,31.48
2018-11-06T13:34:54.694Z,31.15
2018-11-06T13:37:29.993Z,31.90
2018-11-06T13:40:06.204Z,30.10
2018-11-06T13:42:41.950Z,29.05
2018-11-06T13:45:24.714Z,31.52
2018-11-06T13:48:00.151Z,28.57
2018-11-06T13:50:35.331Z,30.12
2018-11-06T13:53:11.539Z,29.90
2018-11-06T13:55:47.019Z,32.20
2018-11-06T13:58:22.276Z,30.88
2018-11-06T14:00:58.025Z,31.35
2018-11-06T14:03:33.651Z,31.33
2018-11-06T14:06:09.122Z,30.45
2018-11-06T14:08:44.555Z,29.98
2018-11-06T14:11:19.872Z,30.85
2018-11-06T14:13:55.317Z,28.07
2018-11-06T14:16:30.680Z,31.48
2018-11-06T14:19:06.113Z,26.77
2018-11-06T14:21:41.520Z,32.05
2018-11-06T14:24:16.851Z,28.23
2018-11-06T14:26:52.277Z,30.43
2018-11-06T14:29:27.676Z,29.50
2018-11-06T14:32:05.915Z,30.27
2018-11-06T14:34:41.364Z,28.42
2018-11-06T14:37:16.563Z,28.05
2018-11-06T14:39:52.125Z,29.05
2018-11-06T14:42:27.718Z,28.15
2018-11-06T14:45:03.113Z,30.72
2018-11-06T14:47:38.754Z,30.45
2018-11-06T14:50:14.258Z,32.08
2018-11-06T14:52:49.681Z,28.70
2018-11-06T14:55:25.070Z,30.70
2018-11-06T14:58:00.564Z,33.13
2018-11-06T15:00:36.059Z,30.90
2018-11-06T15:03:11.838Z,32.17
2018-11-06T15:05:47.275Z,34.13
2018-11-06T15:08:22.997Z,31.15
2018-11-06T15:10:58.460Z,32.75
2018-11-06T15:13:34.007Z,31.65
2018-11-06T15:16:09.684Z,33.88
2018-11-06T15:18:45.314Z,32.30
2018-11-06T15:21:20.745Z,35.65
2018-11-06T15:23:56.325Z,34.85
2018-11-06T15:26:31.926Z,36.17
2018-11-06T15:29:07.396Z,38.63
2018-11-06T15:31:42.740Z,37.63
2018-11-06T15:34:18.254Z,39.13
2018-11-06T15:36:53.621Z,37.60
2018-11-06T15:39:29.164Z,40.48
2018-11-06T15:42:04.669Z,40.10
2018-11-06T15:44:40.491Z,40.23
2018-11-06T15:47:16.026Z,43.23
2018-11-06T15:49:51.556Z,38.55
2018-11-06T15:52:27.110Z,37.67
2018-11-06T15:55:02.569Z,37.58
2018-11-06T15:57:38.262Z,40.10
2018-11-06T16:00:16.445Z,41.25
2018-11-06T16:02:52.171Z,37.03
2018-11-06T16:05:27.514Z,40.58
2018-11-06T16:08:03.270Z,40.90
2018-11-06T16:10:38.765Z,42.25
2018-11-06T16:13:14.448Z,41.70
2018-11-06T16:15:49.767Z,41.33
2018-11-06T16:18:25.153Z,41.15
2018-11-06T16:21:00.740Z,41.30
2018-11-06T16:23:36.327Z,35.20
2018-11-06T16:26:11.741Z,35.33
2018-11-06T16:28:47.112Z,33.80
2018-11-06T16:31:22.386Z,34.13
2018-11-06T16:33:57.993Z,34.73
2018-11-06T16:36:33.310Z,32.65
2018-11-06T16:39:10.421Z,32.55
2018-11-06T16:41:45.732Z,35.52
2018-11-06T16:44:21.071Z,31.85
2018-11-06T16:46:56.709Z,35.20
2018-11-06T16:49:32.489Z,35.30
2018-11-06T16:52:07.886Z,32.95
2018-11-06T16:54:43.231Z,34.88
2018-11-06T16:57:18.723Z,34.60
2018-11-06T16:59:54.252Z,37.40
2018-11-06T17:02:29.493Z,35.73
2018-11-06T17:05:05.551Z,35.80
2018-11-06T17:07:41.098Z,35.95
2018-11-06T17:10:17.027Z,37.13
2018-11-06T17:12:52.469Z,35.50
2018-11-06T17:15:28.073Z,37.40
2018-11-06T17:18:03.277Z,39.75
2018-11-06T17:20:38.601Z,36.40
2018-11-06T17:23:14.114Z,39.15
2018-11-06T17:25:49.571Z,37.93
2018-11-06T17:28:24.918Z,39.00
2018-11-06T17:31:00.300Z,38.20
2018-11-06T17:33:35.887Z,37.23
2018-11-06T17:36:11.628Z,36.28
2018-11-06T17:38:46.968Z,35.23
2018-11-06T17:41:22.494Z,37.00
2018-11-06T17:43:57.941Z,36.00
2018-11-06T17:46:33.915Z,37.60
2018-11-06T17:49:09.222Z,37.90
2018-11-06T17:51:44.734Z,37.65
2018-11-06T17:54:20.220Z,36.45
2018-11-06T17:56:55.739Z,39.27
2018-11-06T17:59:31.537Z,37.70
2018-11-06T18:02:07.472Z,34.73
2018-11-06T18:04:43.069Z,36.48
2018-11-06T18:07:18.436Z,42.15
2018-11-06T18:09:54.101Z,40.95
2018-11-06T18:12:29.544Z,35.58
2018-11-06T18:15:05.124Z,34.13
2018-11-06T18:17:40.954Z,36.68
2018-11-06T18:20:16.455Z,35.60
2018-11-06T18:22:51.833Z,32.58
2018-11-06T18:25:27.616Z,32.40
2018-11-06T18:28:03.060Z,34.30
2018-11-06T18:30:38.557Z,33.05
2018-11-06T18:33:14.041Z,33.78
2018-11-06T18:35:49.459Z,33.25
2018-11-06T18:38:25.050Z,34.53
2018-11-06T18:41:00.231Z,38.23
2018-11-06T18:43:35.583Z,33.83
2018-11-06T18:46:10.914Z,32.67
2018-11-06T18:48:46.653Z,30.45
2018-11-06T18:51:22.031Z,33.50
2018-11-06T18:53:57.460Z,35.40
2018-11-06T18:56:33.091Z,30.35
2018-11-06T18:59:08.407Z,34.15
2018-11-06T19:01:43.686Z,31.48
2018-11-06T19:04:19.268Z,33.92
2018-11-06T19:06:54.625Z,30.52
2018-11-06T19:09:30.233Z,31.00
2018-11-06T19:12:05.996Z,32.75
2018-11-06T19:14:41.532Z,31.42
2018-11-06T19:17:16.986Z,29.48
2018-11-06T19:19:52.323Z,31.37
2018-11-06T19:22:27.643Z,32.75
2018-11-06T19:25:02.997Z,32.20
2018-11-06T19:27:38.556Z,30.32
2018-11-06T19:30:17.793Z,30.40
2018-11-06T19:32:53.565Z,28.30
2018-11-06T19:35:29.204Z,30.50
2018-11-06T19:38:04.725Z,32.70
2018-11-06T19:40:40.308Z,31.12
2018-11-06T19:43:15.717Z,30.08
2018-11-06T19:45:51.196Z,33.13
2018-11-06T19:48:26.701Z,33.40
2018-11-06T19:51:02.294Z,33.67
2018-11-06T19:53:37.868Z,33.98
2018-11-06T19:56:13.299Z,30.68
2018-11-06T19:58:48.894Z,30.85
2018-11-06T20:01:24.360Z,28.00
2018-11-06T20:03:59.662Z,30.55
2018-11-06T20:06:34.915Z,32.50
2018-11-06T20:09:11.272Z,29.37
2018-11-06T20:11:46.786Z,27.70
2018-11-06T20:14:22.291Z,30.55
2018-11-06T20:16:57.630Z,28.52
2018-11-06T20:19:33.090Z,31.60
2018-11-06T20:22:08.557Z,31.15
2018-11-06T20:24:44.094Z,29.98
2018-11-06T20:27:20.020Z,30.40
2018-11-06T20:29:55.413Z,30.10
2018-11-06T20:32:31.053Z,27.75
2018-11-06T20:35:07.393Z,30.20
2018-11-06T20:37:42.949Z,30.20
2018-11-06T20:40:19.906Z,26.95
2018-11-06T20:42:55.509Z,27.48
2018-11-06T20:45:31.071Z,26.02
2018-11-06T20:48:06.358Z,25.15
2018-11-06T20:50:41.886Z,24.43
2018-11-06T20:53:17.336Z,26.82
2018-11-06T20:55:52.778Z,26.20
2018-11-06T20:58:28.417Z,24.15
2018-11-06T21:01:03.965Z,25.23
2018-11-06T21:03:39.181Z,26.35
2018-11-06T21:06:14.491Z,24.55
2018-11-06T21:08:49.976Z,27.15
2018-11-06T21:11:25.314Z,25.92
2018-11-06T21:14:00.773Z,26.20
2018-11-06T21:16:36.247Z,27.30
2018-11-06T21:19:12.031Z,28.95
2018-11-06T21:21:47.471Z,27.02
2018-11-06T21:24:22.770Z,31.23
2018-11-06T21:26:58.148Z,28.50
2018-11-06T21:29:33.554Z,25.97
2018-11-06T21:32:09.218Z,26.23
2018-11-06T21:34:44.624Z,31.97
2018-11-06T21:37:19.823Z,29.70
2018-11-06T21:39:55.211Z,29.65
2018-11-06T21:42:30.680Z,28.02
2018-11-06T21:45:06.911Z,29.67
2018-11-06T21:47:43.111Z,26.90
2018-11-06T21:50:18.793Z,29.35
2018-11-06T21:52:54.166Z,26.10
2018-11-06T21:55:29.875Z,27.70
2018-11-06T21:58:05.473Z,29.57
2018-11-06T22:00:40.939Z,26.60
2018-11-06T22:03:16.614Z,27.45
2018-11-06T22:05:52.077Z,30.37
2018-11-06T22:08:27.554Z,26.33
2018-11-06T22:11:02.994Z,27.48
2018-11-06T22:13:38.523Z,22.17
2018-11-06T22:16:14.198Z,24.80
2018-11-06T22:18:49.553Z,27.13
2018-11-06T22:21:25.296Z,27.22
2018-11-06T22:24:00.831Z,26.93
2018-11-06T22:26:36.491Z,26.30
2018-11-06T22:29:12.016Z,26.73
2018-11-06T22:31:47.766Z,30.25
2018-11-06T22:34:22.983Z,29.55
2018-11-06T22:36:58.524Z,28.50
2018-11-06T22:39:34.045Z,28.92
2018-11-06T22:42:09.410Z,28.65
2018-11-06T22:44:44.933Z,28.70
2018-11-06T22:47:20.541Z,27.07
2018-11-06T22:49:55.905Z,27.98
2018-11-06T22:52:31.221Z,27.60
2018-11-06T22:55:06.751Z,29.67
2018-11-06T22:57:42.374Z,30.05
2018-11-06T23:00:23.575Z,29.30
2018-11-06T23:02:59.053Z,28.92
2018-11-06T23:05:34.653Z,29.42
2018-11-06T23:08:15.194Z,29.77
2018-11-06T23:10:50.508Z,29.95
2018-11-06T23:13:26.510Z,27.73
2018-11-06T23:16:02.064Z,28.62
2018-11-06T23:18:37.449Z,30.17
2018-11-06T23:21:12.784Z,25.92
2018-11-06T23:23:48.201Z,28.83
2018-11-06T23:26:23.913Z,32.30
2018-11-06T23:28:59.521Z,28.80
2018-11-06T23:31:35.225Z,30.00
2018-11-06T23:34:10.904Z,31.02
2018-11-06T23:36:46.605Z,31.23
2018-11-06T23:39:22.354Z,33.80
2018-11-06T23:41:57.851Z,31.52
2018-11-06T23:44:33.396Z,30.15
2018-11-06T23:47:08.907Z,29.57
2018-11-06T23:49:45.265Z,28.65
2018-11-06T23:52:20.849Z,28.92
2018-11-06T23:54:56.365Z,26.73
2018-11-06T23:57:32.275Z,30.00
